createdAt,value
2018-02-09T00:00:36.284Z,-6.42
2018-02-09T00:01:36.243Z,-6.52
2018-02-09T00:02:36.197Z,-6.52
2018-02-09T00:03:36.134Z,-6.50
2018-02-09T00:04:36.115Z,-6.36
2018-02-09T00:05:36.043Z,-6.74
2018-02-09T00:06:35.977Z,-6.66
2018-02-09T00:07:35.932Z,-6.61
2018-02-09T00:08:35.891Z,-6.46
2018-02-09T00:09:35.816Z,-6.43
2018-02-09T00:10:35.769Z,-6.49
2018-02-09T00:11:35.710Z,-6.61
2018-02-09T00:12:35.677Z,-6.62
2018-02-09T00:13:35.620Z,-6.71
2018-02-09T00:14:35.571Z,-6.76
2018-02-09T00:15:35.514Z,-6.84
2018-02-09T00:16:35.459Z,-6.80
2018-02-09T00:17:35.410Z,-6.82
2018-02-09T00:18:35.359Z,-6.76
2018-02-09T00:19:35.301Z,-6.79
2018-02-09T00:20:35.246Z,-6.82
2018-02-09T00:21:35.209Z,-6.69
2018-02-09T00:22:35.165Z,-6.77
2018-02-09T00:23:35.083Z,-6.74
2018-02-09T00:24:35.036Z,-6.86
2018-02-09T00:25:35.013Z,-6.86
2018-02-09T00:26:34.937Z,-6.98
2018-02-09T00:27:34.907Z,-7.04
2018-02-09T00:28:34.833Z,-7.08
2018-02-09T00:29:34.802Z,-7.07
2018-02-09T00:30:34.768Z,-7.08
2018-02-09T00:31:34.675Z,-7.12
2018-02-09T00:32:34.661Z,-7.07
2018-02-09T00:33:34.577Z,-7.16
2018-02-09T00:34:34.534Z,-7.19
2018-02-09T00:35:34.452Z,-7.21
2018-02-09T00:36:34.440Z,-7.18
2018-02-09T00:37:34.370Z,-7.23
2018-02-09T00:38:34.310Z,-7.40
2018-02-09T00:39:34.248Z,-7.34
2018-02-09T00:40:34.197Z,-7.36
2018-02-09T00:41:34.144Z,-7.41
2018-02-09T00:42:34.087Z,-7.40
2018-02-09T00:43:34.057Z,-7.34
2018-02-09T00:44:34.003Z,-7.37
2018-02-09T00:45:33.948Z,-7.37
2018-02-09T00:46:33.908Z,-7.21
2018-02-09T00:47:33.846Z,-7.16
2018-02-09T00:48:33.779Z,-7.33
2018-02-09T00:49:33.721Z,-7.34
2018-02-09T00:50:33.698Z,-7.30
2018-02-09T00:51:33.665Z,-7.39
2018-02-09T00:52:33.580Z,-7.50
2018-02-09T00:53:33.537Z,-7.52
2018-02-09T00:54:33.475Z,-7.54
2018-02-09T00:55:33.432Z,-7.55
2018-02-09T00:56:33.399Z,-7.57
2018-02-09T00:57:33.327Z,-7.55
2018-02-09T00:58:33.283Z,-7.48
2018-02-09T00:59:33.243Z,-7.50
2018-02-09T01:00:33.147Z,-7.40
2018-02-09T01:01:33.112Z,-7.36
2018-02-09T01:02:33.061Z,-7.41
2018-02-09T01:03:33.004Z,-7.52
2018-02-09T01:04:32.934Z,-7.68
2018-02-09T01:05:32.903Z,-7.72
2018-02-09T01:06:32.852Z,-7.71
2018-02-09T01:07:32.805Z,-7.83
2018-02-09T01:08:32.749Z,-7.91
2018-02-09T01:09:32.750Z,-7.91
2018-02-09T01:10:32.634Z,-7.99
2018-02-09T01:11:32.571Z,-8.05
2018-02-09T01:12:32.518Z,-7.97
2018-02-09T01:13:32.463Z,-7.97
2018-02-09T01:14:32.410Z,-8.05
2018-02-09T01:15:32.367Z,-8.01
2018-02-09T01:16:32.302Z,-7.99
2018-02-09T01:17:32.308Z,-7.96
2018-02-09T01:18:32.213Z,-8.02
2018-02-09T01:19:32.171Z,-8.06
2018-02-09T01:20:32.093Z,-8.02
2018-02-09T01:21:32.070Z,-7.93
2018-02-09T01:22:31.991Z,-7.87
2018-02-09T01:23:31.951Z,-7.96
2018-02-09T01:24:31.883Z,-7.96
2018-02-09T01:25:31.834Z,-7.94
2018-02-09T01:26:31.786Z,-8.05
2018-02-09T01:27:31.738Z,-8.02
2018-02-09T01:28:31.677Z,-8.05
2018-02-09T01:29:31.636Z,-8.09
2018-02-09T01:30:31.570Z,-8.06
2018-02-09T01:31:31.514Z,-8.01
2018-02-09T01:32:31.460Z,-7.94
2018-02-09T01:33:31.419Z,-7.99
2018-02-09T01:34:31.366Z,-7.91
2018-02-09T01:35:31.305Z,-8.02
2018-02-09T01:36:31.268Z,-8.08
2018-02-09T01:37:31.181Z,-8.12
2018-02-09T01:38:31.142Z,-8.15
2018-02-09T01:39:31.102Z,-8.26
2018-02-09T01:40:31.051Z,-8.21
2018-02-09T01:41:30.997Z,-8.26
2018-02-09T01:42:30.929Z,-8.27
2018-02-09T01:43:30.871Z,-8.29
2018-02-09T01:44:30.823Z,-8.12
2018-02-09T01:45:30.777Z,-8.19
2018-02-09T01:46:30.734Z,-8.29
2018-02-09T01:47:30.687Z,-8.19
2018-02-09T01:48:30.609Z,-8.26
2018-02-09T01:49:30.550Z,-8.24
2018-02-09T01:50:30.575Z,-8.24
2018-02-09T01:51:30.444Z,-8.30
2018-02-09T01:52:30.402Z,-8.27
2018-02-09T01:53:30.358Z,-8.23
2018-02-09T01:54:30.281Z,-8.26
2018-02-09T01:55:30.237Z,-8.24
2018-02-09T01:56:30.180Z,-8.24
2018-02-09T01:57:30.142Z,-8.19
2018-02-09T01:58:30.105Z,-8.21
2018-02-09T01:59:30.043Z,-8.26
2018-02-09T02:00:29.972Z,-8.15
2018-02-09T02:01:29.912Z,-8.16
2018-02-09T02:02:29.871Z,-8.12
2018-02-09T02:03:29.812Z,-8.05
2018-02-09T02:04:29.756Z,-8.08
2018-02-09T02:05:29.719Z,-8.06
2018-02-09T02:06:29.653Z,-8.05
2018-02-09T02:07:29.613Z,-8.11
2018-02-09T02:08:29.562Z,-8.01
2018-02-09T02:09:29.499Z,-8.05
2018-02-09T02:10:29.444Z,-7.94
2018-02-09T02:11:29.422Z,-7.97
2018-02-09T02:12:29.342Z,-7.89
2018-02-09T02:13:29.308Z,-7.90
2018-02-09T02:14:29.245Z,-7.82
2018-02-09T02:15:29.175Z,-7.90
2018-02-09T02:16:29.120Z,-7.86
2018-02-09T02:17:29.085Z,-7.86
2018-02-09T02:18:29.032Z,-7.86
2018-02-09T02:19:28.957Z,-7.83
2018-02-09T02:20:28.909Z,-7.93
2018-02-09T02:21:28.863Z,-7.89
2018-02-09T02:22:28.797Z,-7.91
2018-02-09T02:23:28.761Z,-8.01
2018-02-09T02:24:28.696Z,-8.06
2018-02-09T02:25:28.641Z,-8.12
2018-02-09T02:26:28.582Z,-8.24
2018-02-09T02:27:28.527Z,-8.26
2018-02-09T02:28:28.489Z,-8.37
2018-02-09T02:29:28.450Z,-8.36
2018-02-09T02:30:28.381Z,-8.29
2018-02-09T02:31:28.322Z,-8.27
2018-02-09T02:32:28.289Z,-8.23
2018-02-09T02:33:28.239Z,-8.21
2018-02-09T02:34:28.185Z,-8.19
2018-02-09T02:35:28.121Z,-8.08
2018-02-09T02:36:28.075Z,-8.11
2018-02-09T02:37:28.001Z,-8.09
2018-02-09T02:38:27.959Z,-8.01
2018-02-09T02:39:27.910Z,-7.99
2018-02-09T02:40:27.866Z,-8.13
2018-02-09T02:41:27.800Z,-8.09
2018-02-09T02:42:27.729Z,-8.12
2018-02-09T02:43:27.680Z,-8.18
2018-02-09T02:44:27.642Z,-8.21
2018-02-09T02:45:27.590Z,-8.21
2018-02-09T02:46:27.528Z,-8.26
2018-02-09T02:47:27.469Z,-8.26
2018-02-09T02:48:27.415Z,-8.44
2018-02-09T02:49:27.363Z,-8.47
2018-02-09T02:50:27.304Z,-8.50
2018-02-09T02:51:27.270Z,-8.42
2018-02-09T02:52:27.206Z,-8.45
2018-02-09T02:53:27.149Z,-8.42
2018-02-09T02:54:27.100Z,-8.27
2018-02-09T02:55:27.052Z,-8.29
2018-02-09T02:56:26.989Z,-8.24
2018-02-09T02:57:26.943Z,-8.23
2018-02-09T02:58:26.890Z,-8.19
2018-02-09T02:59:26.832Z,-8.21
2018-02-09T03:00:26.780Z,-8.30
2018-02-09T03:01:26.727Z,-8.31
2018-02-09T03:02:26.777Z,-8.27
2018-02-09T03:03:26.622Z,-8.27
2018-02-09T03:04:26.573Z,-8.21
2018-02-09T03:05:26.516Z,-8.42
2018-02-09T03:06:26.483Z,-8.65
2018-02-09T03:07:26.407Z,-8.65
2018-02-09T03:08:26.355Z,-8.76
2018-02-09T03:09:26.327Z,-8.81
2018-02-09T03:10:26.296Z,-8.73
2018-02-09T03:11:26.209Z,-8.69
2018-02-09T03:12:26.174Z,-8.62
2018-02-09T03:13:26.086Z,-8.65
2018-02-09T03:14:26.063Z,-8.55
2018-02-09T03:15:25.963Z,-8.72
2018-02-09T03:16:25.919Z,-8.83
2018-02-09T03:17:25.878Z,-9.05
2018-02-09T03:18:25.831Z,-9.02
2018-02-09T03:19:25.778Z,-8.90
2018-02-09T03:20:25.712Z,-8.93
2018-02-09T03:21:25.651Z,-8.78
2018-02-09T03:22:25.603Z,-8.78
2018-02-09T03:23:25.542Z,-8.80
2018-02-09T03:24:25.497Z,-8.76
2018-02-09T03:25:25.436Z,-8.73
2018-02-09T03:26:25.406Z,-8.76
2018-02-09T03:27:25.348Z,-8.72
2018-02-09T03:28:25.299Z,-8.78
2018-02-09T03:29:25.233Z,-8.76
2018-02-09T03:30:25.165Z,-8.75
2018-02-09T03:31:25.131Z,-8.80
2018-02-09T03:32:25.070Z,-8.80
2018-02-09T03:33:25.019Z,-8.66
2018-02-09T03:34:24.956Z,-8.76
2018-02-09T03:35:24.894Z,-8.89
2018-02-09T03:36:24.857Z,-8.90
2018-02-09T03:37:24.790Z,-9.04
2018-02-09T03:38:24.733Z,-8.98
2018-02-09T03:39:24.689Z,-8.98
2018-02-09T03:40:24.650Z,-8.94
2018-02-09T03:41:24.590Z,-8.91
2018-02-09T03:42:24.533Z,-9.02
2018-02-09T03:43:24.477Z,-8.80
2018-02-09T03:44:24.425Z,-8.89
2018-02-09T03:45:24.375Z,-8.86
2018-02-09T03:46:24.330Z,-8.98
2018-02-09T03:47:24.333Z,-9.00
2018-02-09T03:48:24.214Z,-9.04
2018-02-09T03:49:24.161Z,-8.86
2018-02-09T03:50:24.095Z,-8.93
2018-02-09T03:51:24.067Z,-8.98
2018-02-09T03:52:24.002Z,-9.02
2018-02-09T03:53:23.945Z,-8.96
2018-02-09T03:54:23.907Z,-8.96
2018-02-09T03:55:23.827Z,-9.00
2018-02-09T03:56:23.795Z,-9.04
2018-02-09T03:57:23.730Z,-9.04
2018-02-09T03:58:23.680Z,-9.15
2018-02-09T03:59:23.636Z,-9.26
2018-02-09T04:00:23.558Z,-9.37
2018-02-09T04:01:23.547Z,-9.54
2018-02-09T04:02:23.473Z,-9.56
2018-02-09T04:03:23.397Z,-9.58
2018-02-09T04:04:23.331Z,-9.37
2018-02-09T04:05:23.334Z,-9.30
2018-02-09T04:06:31.428Z,-9.20
2018-02-09T04:08:16.648Z,-8.96
2018-02-09T04:09:16.570Z,-9.05
2018-02-09T04:11:09.574Z,-9.00
2018-02-09T04:12:09.598Z,-9.15
2018-02-09T04:14:02.561Z,-9.14
2018-02-09T04:15:02.529Z,-9.15
2018-02-09T04:16:55.466Z,-9.07
2018-02-09T04:17:55.127Z,-9.04
2018-02-09T04:19:48.478Z,-9.04
2018-02-09T04:20:48.366Z,-9.11
2018-02-09T04:22:42.980Z,-9.12
2018-02-09T04:23:42.884Z,-9.05
2018-02-09T04:25:35.944Z,-9.11
2018-02-09T04:26:35.870Z,-9.18
2018-02-09T04:28:28.883Z,-9.18
2018-02-09T04:29:28.860Z,-9.15
2018-02-09T04:31:23.110Z,-9.22
2018-02-09T04:32:22.953Z,-9.23
2018-02-09T04:34:16.734Z,-9.28
2018-02-09T04:35:16.391Z,-9.39
2018-02-09T04:37:11.299Z,-9.29
2018-02-09T04:38:11.149Z,-9.30
2018-02-09T04:40:04.677Z,-9.30
2018-02-09T04:41:04.654Z,-9.32
2018-02-09T04:42:04.213Z,-9.45
2018-02-09T04:43:04.184Z,-9.58
2018-02-09T04:44:04.118Z,-9.47
2018-02-09T04:45:04.046Z,-9.48
2018-02-09T04:46:04.024Z,-9.40
2018-02-09T04:47:03.946Z,-9.29
2018-02-09T04:48:12.123Z,-9.33
2018-02-09T04:49:57.287Z,-9.40
2018-02-09T04:50:57.187Z,-9.51
2018-02-09T04:52:50.306Z,-9.54
2018-02-09T04:53:50.144Z,-9.79
2018-02-09T04:55:44.617Z,-9.84
2018-02-09T04:56:44.591Z,-9.94
2018-02-09T04:58:37.510Z,-10.21
2018-02-09T04:59:37.520Z,-10.25
2018-02-09T05:01:30.552Z,-9.97
2018-02-09T05:02:30.430Z,-9.92
2018-02-09T05:04:23.589Z,-9.54
2018-02-09T05:05:23.401Z,-9.62
2018-02-09T05:07:16.470Z,-9.69
2018-02-09T05:08:16.054Z,-9.87
2018-02-09T05:10:09.385Z,-10.02
2018-02-09T05:11:08.954Z,-10.16
2018-02-09T05:13:03.777Z,-10.33
2018-02-09T05:14:03.624Z,-10.46
2018-02-09T05:15:56.780Z,-10.28
2018-02-09T05:16:56.688Z,-10.13
2018-02-09T05:18:49.717Z,-9.87
2018-02-09T05:19:49.262Z,-9.83
2018-02-09T05:21:44.115Z,-9.72
2018-02-09T05:22:43.641Z,-9.90
2018-02-09T05:24:37.034Z,-9.81
2018-02-09T05:25:36.944Z,-10.00
2018-02-09T05:27:29.960Z,-10.23
2018-02-09T05:28:29.919Z,-10.41
2018-02-09T05:30:22.903Z,-10.62
2018-02-09T05:31:22.605Z,-10.60
2018-02-09T05:33:15.956Z,-10.23
2018-02-09T05:34:15.819Z,-10.10
2018-02-09T05:36:08.826Z,-10.13
2018-02-09T05:37:08.446Z,-10.10
2018-02-09T05:39:01.790Z,-9.89
2018-02-09T05:40:01.749Z,-9.86
2018-02-09T05:41:55.858Z,-9.79
2018-02-09T05:42:55.775Z,-9.81
2018-02-09T05:44:48.805Z,-9.94
2018-02-09T05:45:49.025Z,-9.89
2018-02-09T05:47:42.076Z,-9.86
2018-02-09T05:48:41.994Z,-9.92
2018-02-09T05:50:35.079Z,-9.89
2018-02-09T05:51:34.948Z,-9.86
2018-02-09T05:53:29.388Z,-9.79
2018-02-09T05:54:29.362Z,-9.87
2018-02-09T05:56:22.382Z,-9.84
2018-02-09T05:57:22.273Z,-9.97
2018-02-09T05:59:15.357Z,-9.90
2018-02-09T06:00:14.908Z,-9.98
2018-02-09T06:02:07.999Z,-10.02
2018-02-09T06:03:07.892Z,-10.07
2018-02-09T06:05:01.056Z,-9.98
2018-02-09T06:06:01.135Z,-9.80
2018-02-09T06:07:55.623Z,-9.80
2018-02-09T06:08:55.213Z,-9.81
2018-02-09T06:10:48.616Z,-9.89
2018-02-09T06:11:48.503Z,-9.89
2018-02-09T06:13:41.533Z,-9.86
2018-02-09T06:14:41.489Z,-9.77
2018-02-09T06:16:34.486Z,-9.77
2018-02-09T06:17:34.407Z,-9.84
2018-02-09T06:19:27.467Z,-9.98
2018-02-09T06:20:27.422Z,-10.01
2018-02-09T06:22:21.983Z,-9.98
2018-02-09T06:23:21.749Z,-9.94
2018-02-09T06:25:14.785Z,-9.92
2018-02-09T06:26:14.754Z,-9.95
2018-02-09T06:28:07.735Z,-10.01
2018-02-09T06:29:07.728Z,-10.05
2018-02-09T06:31:00.725Z,-10.08
2018-02-09T06:32:00.570Z,-9.94
2018-02-09T06:33:53.677Z,-10.07
2018-02-09T06:34:53.528Z,-10.10
2018-02-09T06:36:48.033Z,-10.10
2018-02-09T06:37:47.605Z,-10.18
2018-02-09T06:38:47.627Z,-10.25
2018-02-09T06:39:47.512Z,-10.25
2018-02-09T06:40:47.465Z,-10.33
2018-02-09T06:41:47.401Z,-10.23
2018-02-09T06:42:47.389Z,-10.19
2018-02-09T06:43:47.315Z,-10.15
2018-02-09T06:44:47.330Z,-10.04
2018-02-09T06:45:47.212Z,-10.15
2018-02-09T06:46:47.515Z,-10.08
2018-02-09T06:47:47.091Z,-10.13
2018-02-09T06:48:47.026Z,-10.05
2018-02-09T06:49:46.964Z,-10.15
2018-02-09T06:50:46.902Z,-10.12
2018-02-09T06:51:46.841Z,-10.12
2018-02-09T06:52:46.804Z,-10.22
2018-02-09T06:53:46.851Z,-10.28
2018-02-09T06:54:46.686Z,-10.36
2018-02-09T06:55:46.650Z,-10.39
2018-02-09T06:56:46.568Z,-10.31
2018-02-09T06:57:46.534Z,-10.12
2018-02-09T06:58:46.488Z,-9.92
2018-02-09T06:59:46.423Z,-9.84
2018-02-09T07:00:46.350Z,-9.92
2018-02-09T07:01:46.294Z,-9.77
2018-02-09T07:02:46.257Z,-9.72
2018-02-09T07:03:46.192Z,-9.89
2018-02-09T07:04:46.141Z,-9.81
2018-02-09T07:05:46.074Z,-9.86
2018-02-09T07:06:46.024Z,-9.87
2018-02-09T07:07:45.982Z,-9.86
2018-02-09T07:08:45.927Z,-9.80
2018-02-09T07:09:45.860Z,-9.87
2018-02-09T07:10:45.804Z,-9.74
2018-02-09T07:11:45.745Z,-9.74
2018-02-09T07:12:45.715Z,-9.77
2018-02-09T07:13:45.647Z,-9.63
2018-02-09T07:14:45.597Z,-9.71
2018-02-09T07:15:45.556Z,-9.79
2018-02-09T07:16:45.496Z,-9.66
2018-02-09T07:17:45.449Z,-9.69
2018-02-09T07:18:50.165Z,-9.62
2018-02-09T07:19:45.358Z,-9.62
2018-02-09T07:21:38.706Z,-9.40
2018-02-09T07:22:38.657Z,-9.30
2018-02-09T07:24:31.669Z,-9.19
2018-02-09T07:25:31.642Z,-9.19
2018-02-09T07:27:24.701Z,-9.14
2018-02-09T07:28:24.523Z,-9.11
2018-02-09T07:30:17.576Z,-9.05
2018-02-09T07:31:17.538Z,-9.08
2018-02-09T07:33:10.540Z,-9.02
2018-02-09T07:34:10.446Z,-9.04
2018-02-09T07:36:03.716Z,-9.02
2018-02-09T07:37:03.426Z,-9.00
2018-02-09T07:38:56.487Z,-8.80
2018-02-09T07:39:56.034Z,-8.86
2018-02-09T07:41:50.927Z,-8.84
2018-02-09T07:42:50.535Z,-8.78
2018-02-09T07:44:43.887Z,-8.66
2018-02-09T07:45:43.814Z,-8.50
2018-02-09T07:47:36.518Z,-8.42
2018-02-09T07:48:36.472Z,-8.45
2018-02-09T07:50:29.481Z,-8.36
2018-02-09T07:51:29.481Z,-8.40
2018-02-09T07:53:22.801Z,-8.33
2018-02-09T07:54:22.662Z,-8.27
2018-02-09T07:56:15.751Z,-8.01
2018-02-09T07:57:15.648Z,-8.01
2018-02-09T07:59:10.181Z,-7.83
2018-02-09T08:00:10.154Z,-7.72
2018-02-09T08:02:03.167Z,-7.60
2018-02-09T08:03:03.127Z,-7.55
2018-02-09T08:04:56.119Z,-7.07
2018-02-09T08:05:55.719Z,-6.82
2018-02-09T08:07:48.783Z,-6.23
2018-02-09T08:08:48.945Z,-6.11
2018-02-09T08:10:41.969Z,-5.75
2018-02-09T08:11:41.625Z,-5.79
2018-02-09T08:13:35.033Z,-5.47
2018-02-09T08:14:34.554Z,-5.36
2018-02-09T08:16:29.119Z,-4.89
2018-02-09T08:17:29.047Z,-4.77
2018-02-09T08:19:22.367Z,-4.63
2018-02-09T08:20:22.346Z,-4.50
2018-02-09T08:22:15.384Z,-4.50
2018-02-09T08:23:15.282Z,-4.57
2018-02-09T08:25:08.349Z,-4.83
2018-02-09T08:26:08.217Z,-4.96
2018-02-09T08:28:01.305Z,-4.89
2018-02-09T08:29:01.274Z,-5.06
2018-02-09T08:30:54.312Z,-5.26
2018-02-09T08:31:54.203Z,-5.06
2018-02-09T08:33:47.262Z,-4.90
2018-02-09T08:34:47.248Z,-4.50
2018-02-09T08:36:41.793Z,-4.11
2018-02-09T08:37:41.704Z,-3.96
2018-02-09T08:39:34.695Z,-3.96
2018-02-09T08:40:34.653Z,-3.69
2018-02-09T08:42:28.199Z,-2.96
2018-02-09T08:43:28.038Z,-2.60
2018-02-09T08:45:21.102Z,-2.94
2018-02-09T08:46:21.130Z,-2.91
2018-02-09T08:48:14.106Z,-2.91
2018-02-09T08:49:13.984Z,-2.91
2018-02-09T08:51:07.009Z,-2.97
2018-02-09T08:52:06.935Z,-3.45
2018-02-09T08:54:00.043Z,-3.85
2018-02-09T08:54:59.930Z,-3.57
2018-02-09T08:56:52.969Z,-3.45
2018-02-09T08:57:52.564Z,-2.85
2018-02-09T08:59:45.923Z,-1.87
2018-02-09T09:00:45.522Z,-1.17
2018-02-09T09:02:38.784Z,-0.10
2018-02-09T09:03:38.544Z,-0.21
2018-02-09T09:05:31.840Z,0.83
2018-02-09T09:06:31.423Z,1.24
2018-02-09T09:08:24.761Z,1.58
2018-02-09T09:09:24.411Z,1.98
2018-02-09T09:11:17.604Z,1.44
2018-02-09T09:12:17.340Z,0.86
2018-02-09T09:14:10.615Z,1.11
2018-02-09T09:15:10.300Z,1.33
2018-02-09T09:17:05.090Z,1.30
2018-02-09T09:18:04.785Z,1.65
2018-02-09T09:19:58.143Z,1.60
2018-02-09T09:20:57.737Z,1.86
2018-02-09T09:22:51.033Z,2.36
2018-02-09T09:23:50.698Z,2.34
2018-02-09T09:25:44.003Z,2.82
2018-02-09T09:26:43.653Z,3.32
2018-02-09T09:28:36.941Z,3.93
2018-02-09T09:29:36.597Z,4.14
2018-02-09T09:31:29.820Z,4.54
2018-02-09T09:32:29.646Z,4.47
2018-02-09T09:34:24.364Z,3.98
2018-02-09T09:35:24.305Z,3.88
2018-02-09T09:37:17.399Z,3.06
2018-02-09T09:38:17.340Z,3.55
2018-02-09T09:40:10.404Z,3.10
2018-02-09T09:41:10.268Z,4.20
2018-02-09T09:43:03.282Z,5.86
2018-02-09T09:44:02.967Z,5.75
2018-02-09T09:45:56.265Z,5.17
2018-02-09T09:46:56.179Z,4.51
2018-02-09T09:48:49.233Z,3.93
2018-02-09T09:49:48.905Z,3.28
2018-02-09T09:51:42.173Z,2.00
2018-02-09T09:52:42.030Z,1.63
2018-02-09T09:54:36.708Z,1.40
2018-02-09T09:55:36.362Z,1.44
2018-02-09T09:57:29.412Z,1.40
2018-02-09T09:58:29.346Z,1.65
2018-02-09T10:00:22.566Z,1.51
2018-02-09T10:01:22.296Z,1.41
2018-02-09T10:03:15.565Z,1.69
2018-02-09T10:04:15.220Z,1.73
2018-02-09T10:06:08.454Z,1.32
2018-02-09T10:07:08.179Z,1.52
2018-02-09T10:09:01.486Z,1.24
2018-02-09T10:10:01.135Z,1.62
2018-02-09T10:11:54.380Z,1.77
2018-02-09T10:12:54.096Z,1.95
2018-02-09T10:14:48.937Z,1.63
2018-02-09T10:15:48.609Z,1.54
2018-02-09T10:17:41.864Z,1.50
2018-02-09T10:18:41.520Z,1.60
2018-02-09T10:20:34.906Z,1.58
2018-02-09T10:21:34.494Z,1.66
2018-02-09T10:23:27.852Z,1.41
2018-02-09T10:24:27.440Z,1.09
2018-02-09T10:26:20.816Z,1.51
2018-02-09T10:27:20.404Z,1.70
2018-02-09T10:29:25.906Z,1.18
2018-02-09T10:30:25.569Z,1.22
2018-02-09T10:32:20.381Z,1.14
2018-02-09T10:33:20.030Z,1.26
2018-02-09T10:34:20.009Z,1.55
2018-02-09T10:35:20.002Z,1.33
2018-02-09T10:36:19.900Z,1.59
2018-02-09T10:37:19.969Z,1.63
2018-02-09T10:38:19.845Z,1.68
2018-02-09T10:39:20.056Z,1.87
2018-02-09T10:40:19.723Z,2.00
2018-02-09T10:41:19.676Z,1.91
2018-02-09T10:42:19.637Z,1.91
2018-02-09T10:43:19.620Z,2.09
2018-02-09T10:44:19.556Z,1.99
2018-02-09T10:45:19.519Z,1.88
2018-02-09T10:46:19.463Z,1.79
2018-02-09T10:47:19.435Z,1.76
2018-02-09T10:48:19.389Z,2.10
2018-02-09T10:49:19.338Z,2.31
2018-02-09T10:50:19.296Z,2.35
2018-02-09T10:51:19.262Z,1.88
2018-02-09T10:52:19.212Z,1.76
2018-02-09T10:53:19.184Z,1.91
2018-02-09T10:54:19.131Z,1.79
2018-02-09T10:55:19.087Z,1.41
2018-02-09T10:56:19.038Z,1.15
2018-02-09T10:57:18.992Z,1.55
2018-02-09T10:58:18.954Z,1.37
2018-02-09T10:59:18.908Z,1.14
2018-02-09T11:00:18.885Z,1.58
2018-02-09T11:01:18.826Z,1.54
2018-02-09T11:02:18.770Z,1.72
2018-02-09T11:03:18.742Z,1.62
2018-02-09T11:04:18.679Z,1.58
2018-02-09T11:05:18.633Z,1.59
2018-02-09T11:06:18.603Z,1.66
2018-02-09T11:07:18.584Z,1.80
2018-02-09T11:08:18.517Z,1.79
2018-02-09T11:09:18.491Z,2.03
2018-02-09T11:10:18.438Z,2.21
2018-02-09T11:11:18.387Z,2.18
2018-02-09T11:12:18.337Z,2.12
2018-02-09T11:13:18.301Z,1.98
2018-02-09T11:14:18.254Z,2.00
2018-02-09T11:15:18.215Z,2.14
2018-02-09T11:16:18.177Z,2.34
2018-02-09T11:17:18.135Z,2.84
2018-02-09T11:18:18.101Z,2.75
2018-02-09T11:19:18.049Z,2.74
2018-02-09T11:20:18.034Z,2.46
2018-02-09T11:21:17.948Z,2.77
2018-02-09T11:22:17.917Z,2.72
2018-02-09T11:23:17.875Z,2.28
2018-02-09T11:24:17.833Z,2.00
2018-02-09T11:25:17.779Z,1.72
2018-02-09T11:26:17.741Z,1.72
2018-02-09T11:27:17.722Z,1.60
2018-02-09T11:28:17.650Z,1.58
2018-02-09T11:29:17.608Z,1.68
2018-02-09T11:30:17.572Z,2.07
2018-02-09T11:31:17.515Z,1.66
2018-02-09T11:32:17.474Z,1.27
2018-02-09T11:33:17.431Z,1.68
2018-02-09T11:34:17.393Z,1.80
2018-02-09T11:35:17.350Z,1.66
2018-02-09T11:36:17.305Z,1.80
2018-02-09T11:37:17.277Z,1.70
2018-02-09T11:38:17.228Z,2.05
2018-02-09T11:39:17.175Z,1.54
2018-02-09T11:40:17.145Z,1.76
2018-02-09T11:41:17.091Z,1.65
2018-02-09T11:42:17.057Z,1.30
2018-02-09T11:43:16.994Z,1.24
2018-02-09T11:44:16.999Z,1.26
2018-02-09T11:45:16.909Z,1.11
2018-02-09T11:46:16.884Z,1.23
2018-02-09T11:47:16.831Z,1.37
2018-02-09T11:48:16.780Z,1.40
2018-02-09T11:49:16.750Z,1.27
2018-02-09T11:50:16.703Z,1.27
2018-02-09T11:51:16.663Z,1.02
2018-02-09T11:52:16.615Z,1.02
2018-02-09T11:53:16.562Z,1.33
2018-02-09T11:54:16.526Z,1.09
2018-02-09T11:55:16.460Z,1.08
2018-02-09T11:56:16.432Z,1.14
2018-02-09T11:57:16.372Z,1.29
2018-02-09T11:58:16.347Z,1.41
2018-02-09T11:59:16.308Z,1.37
2018-02-09T12:00:16.262Z,1.15
2018-02-09T12:01:16.222Z,1.06
2018-02-09T12:02:16.162Z,1.08
2018-02-09T12:03:16.113Z,1.16
2018-02-09T12:04:16.079Z,1.26
2018-02-09T12:05:16.025Z,1.26
2018-02-09T12:06:16.006Z,1.33
2018-02-09T12:07:15.933Z,1.52
2018-02-09T12:08:15.901Z,1.37
2018-02-09T12:09:15.859Z,1.58
2018-02-09T12:10:15.813Z,1.59
2018-02-09T12:11:15.757Z,1.51
2018-02-09T12:12:15.718Z,1.42
2018-02-09T12:13:15.665Z,1.42
2018-02-09T12:14:15.640Z,1.41
2018-02-09T12:15:15.608Z,1.33
2018-02-09T12:16:15.590Z,1.24
2018-02-09T12:17:15.486Z,1.32
2018-02-09T12:18:15.488Z,1.36
2018-02-09T12:19:15.414Z,1.41
2018-02-09T12:20:15.407Z,1.09
2018-02-09T12:21:15.361Z,1.04
2018-02-09T12:22:15.283Z,1.14
2018-02-09T12:23:15.232Z,1.30
2018-02-09T12:24:15.221Z,1.18
2018-02-09T12:25:15.152Z,1.06
2018-02-09T12:26:15.870Z,1.04
2018-02-09T12:27:15.067Z,1.12
2018-02-09T12:28:15.012Z,1.14
2018-02-09T12:29:14.968Z,1.15
2018-02-09T12:30:14.929Z,1.42
2018-02-09T12:31:14.925Z,1.48
2018-02-09T12:32:14.833Z,1.42
2018-02-09T12:33:14.801Z,1.44
2018-02-09T12:34:14.744Z,1.60
2018-02-09T12:35:14.720Z,1.54
2018-02-09T12:36:14.666Z,1.79
2018-02-09T12:37:14.612Z,1.63
2018-02-09T12:38:14.569Z,1.55
2018-02-09T12:39:14.513Z,1.62
2018-02-09T12:40:14.474Z,1.54
2018-02-09T12:41:14.428Z,1.60
2018-02-09T12:42:14.418Z,1.41
2018-02-09T12:43:14.345Z,1.51
2018-02-09T12:44:14.298Z,1.60
2018-02-09T12:45:14.245Z,1.63
2018-02-09T12:46:14.208Z,1.51
2018-02-09T12:47:14.161Z,1.55
2018-02-09T12:48:14.122Z,1.66
2018-02-09T12:49:14.074Z,1.63
2018-02-09T12:50:14.033Z,1.79
2018-02-09T12:51:13.989Z,1.76
2018-02-09T12:52:13.935Z,1.93
2018-02-09T12:53:13.919Z,1.76
2018-02-09T12:54:13.854Z,1.60
2018-02-09T12:55:13.807Z,1.54
2018-02-09T12:56:13.760Z,1.62
2018-02-09T12:57:13.716Z,2.05
2018-02-09T12:58:13.677Z,1.72
2018-02-09T12:59:13.628Z,1.79
2018-02-09T13:00:13.581Z,1.58
2018-02-09T13:01:13.551Z,1.36
2018-02-09T13:02:13.500Z,1.68
2018-02-09T13:03:13.457Z,1.60
2018-02-09T13:04:13.405Z,1.68
2018-02-09T13:05:13.354Z,1.90
2018-02-09T13:06:13.327Z,2.02
2018-02-09T13:07:13.267Z,1.83
2018-02-09T13:08:13.222Z,1.98
2018-02-09T13:09:13.186Z,1.80
2018-02-09T13:10:13.140Z,1.81
2018-02-09T13:11:13.090Z,1.84
2018-02-09T13:12:13.058Z,1.79
2018-02-09T13:13:12.995Z,1.84
2018-02-09T13:14:12.957Z,1.63
2018-02-09T13:15:12.915Z,1.73
2018-02-09T13:16:12.877Z,1.51
2018-02-09T13:17:12.824Z,1.59
2018-02-09T13:18:12.781Z,1.50
2018-02-09T13:19:12.738Z,1.54
2018-02-09T13:20:12.698Z,1.58
2018-02-09T13:21:12.651Z,1.76
2018-02-09T13:22:12.610Z,1.76
2018-02-09T13:23:12.576Z,1.63
2018-02-09T13:24:12.548Z,1.59
2018-02-09T13:25:12.470Z,1.70
2018-02-09T13:26:12.432Z,1.65
2018-02-09T13:27:12.386Z,1.68
2018-02-09T13:28:12.348Z,1.66
2018-02-09T13:29:12.308Z,1.60
2018-02-09T13:30:12.257Z,1.59
2018-02-09T13:31:12.212Z,1.65
2018-02-09T13:32:12.170Z,1.60
2018-02-09T13:33:12.130Z,1.80
2018-02-09T13:34:12.076Z,1.44
2018-02-09T13:35:12.033Z,1.66
2018-02-09T13:36:12.029Z,1.63
2018-02-09T13:37:11.932Z,1.76
2018-02-09T13:38:11.889Z,1.52
2018-02-09T13:39:11.839Z,1.41
2018-02-09T13:40:11.820Z,1.32
2018-02-09T13:41:11.766Z,1.29
2018-02-09T13:42:11.743Z,1.36
2018-02-09T13:43:11.666Z,1.41
2018-02-09T13:44:11.644Z,1.58
2018-02-09T13:45:11.595Z,1.60
2018-02-09T13:46:11.540Z,1.37
2018-02-09T13:47:11.500Z,1.24
2018-02-09T13:48:11.449Z,1.29
2018-02-09T13:49:11.434Z,1.26
2018-02-09T13:50:11.371Z,1.23
2018-02-09T13:51:11.318Z,1.12
2018-02-09T13:52:12.032Z,1.23
2018-02-09T13:53:11.233Z,1.41
2018-02-09T13:54:11.184Z,1.40
2018-02-09T13:55:11.140Z,1.36
2018-02-09T13:56:11.106Z,1.36
2018-02-09T13:57:11.058Z,1.18
2018-02-09T13:58:11.014Z,1.09
2018-02-09T13:59:10.976Z,1.20
2018-02-09T14:00:10.918Z,1.15
2018-02-09T14:01:10.884Z,0.98
2018-02-09T14:02:10.836Z,0.86
2018-02-09T14:03:10.775Z,0.91
2018-02-09T14:04:10.750Z,0.97
2018-02-09T14:05:10.693Z,1.05
2018-02-09T14:06:10.637Z,1.14
2018-02-09T14:07:10.599Z,0.96
2018-02-09T14:08:10.563Z,1.14
2018-02-09T14:09:10.510Z,1.18
2018-02-09T14:10:10.463Z,1.15
2018-02-09T14:11:10.432Z,0.97
2018-02-09T14:12:10.368Z,1.15
2018-02-09T14:13:10.331Z,1.12
2018-02-09T14:14:10.302Z,1.05
2018-02-09T14:15:10.257Z,0.93
2018-02-09T14:16:10.215Z,0.96
2018-02-09T14:17:10.183Z,0.94
2018-02-09T14:18:10.111Z,1.00
2018-02-09T14:19:10.065Z,0.87
2018-02-09T14:20:10.003Z,0.88
2018-02-09T14:21:09.967Z,1.05
2018-02-09T14:22:09.941Z,1.04
2018-02-09T14:23:09.882Z,1.04
2018-02-09T14:24:09.846Z,0.84
2018-02-09T14:25:09.772Z,0.80
2018-02-09T14:26:09.858Z,0.80
2018-02-09T14:27:09.721Z,0.84
2018-02-09T14:28:09.665Z,0.93
2018-02-09T14:29:09.606Z,1.00
2018-02-09T14:30:09.600Z,0.98
2018-02-09T14:31:09.528Z,1.00
2018-02-09T14:32:09.495Z,0.96
2018-02-09T14:33:09.419Z,0.84
2018-02-09T14:34:09.385Z,0.87
2018-02-09T14:35:09.338Z,0.84
2018-02-09T14:36:09.290Z,0.84
2018-02-09T14:37:09.260Z,0.83
2018-02-09T14:38:09.208Z,0.83
2018-02-09T14:39:09.150Z,0.96
2018-02-09T14:40:09.115Z,0.88
2018-02-09T14:41:09.048Z,0.93
2018-02-09T14:42:09.011Z,0.97
2018-02-09T14:43:08.971Z,0.76
2018-02-09T14:44:08.920Z,0.72
2018-02-09T14:45:08.875Z,0.69